sensor_id;sensor_type;location;lat;lon;timestamp;temperature;humidity
12845;DHT22;68700;48.534;9.196;2023-07-13T00:02:08;19.70;1.00
12845;DHT22;68700;48.534;9.196;2023-07-13T00:05:30;19.70;1.00
12845;DHT22;68700;48.534;9.196;2023-07-13T00:08:52;19.70;1.00
12845;DHT22;68700;48.534;9.196;2023-07-13T00:12:25;19.60;1.00
12845;DHT22;68700;48.534;9.196;2023-07-13T00:15:48;19.60;1.00
12845;DHT22;68700;48.534;9.196;2023-07-13T00:19:12;19.50;1.00
12845;DHT22;68700;48.534;9.196;2023-07-13T00:22:34;19.50;1.00
12845;DHT22;68700;48.534;9.196;2023-07-13T00:25:56;19.40;1.00
12845;DHT22;68700;48.534;9.196;2023-07-13T00:29:18;19.40;1.00
12845;DHT22;68700;48.534;9.196;2023-07-13T00:32:41;19.40;1.00
12845;DHT22;68700;48.534;9.196;2023-07-13T00:36:05;19.30;1.00
12845;DHT22;68700;48.534;9.196;2023-07-13T00:39:27;19.20;1.00
12845;DHT22;68700;48.534;9.196;2023-07-13T00:42:51;19.20;1.00
12845;DHT22;68700;48.534;9.196;2023-07-13T00:46:23;19.10;1.00
12845;DHT22;68700;48.534;9.196;2023-07-13T00:49:45;19.00;1.00
12845;DHT22;68700;48.534;9.196;2023-07-13T00:53:08;18.90;1.00
12845;DHT22;68700;48.534;9.196;2023-07-13T00:56:33;18.80;1.00
12845;DHT22;68700;48.534;9.196;2023-07-13T00:59:58;18.80;1.00
12845;DHT22;68700;48.534;9.196;2023-07-13T01:03:20;18.70;1.00
12845;DHT22;68700;48.534;9.196;2023-07-13T01:06:42;18.60;1.00
12845;DHT22;68700;48.534;9.196;2023-07-13T01:10:07;18.60;1.00
12845;DHT22;68700;48.534;9.196;2023-07-13T01:13:29;18.70;1.00
12845;DHT22;68700;48.534;9.196;2023-07-13T01:16:51;18.70;1.00
12845;DHT22;68700;48.534;9.196;2023-07-13T01:20:14;18.70;1.00
12845;DHT22;68700;48.534;9.196;2023-07-13T01:23:37;18.70;1.00
12845;DHT22;68700;48.534;9.196;2023-07-13T01:26:59;18.70;1.00
12845;DHT22;68700;48.534;9.196;2023-07-13T01:30:21;18.80;1.00
12845;DHT22;68700;48.534;9.196;2023-07-13T01:33:43;18.90;1.00
12845;DHT22;68700;48.534;9.196;2023-07-13T01:37:05;18.90;1.00
12845;DHT22;68700;48.534;9.196;2023-07-13T01:40:29;19.00;1.00
12845;DHT22;68700;48.534;9.196;2023-07-13T01:43:51;19.00;1.00
12845;DHT22;68700;48.534;9.196;2023-07-13T01:47:13;19.00;1.00
12845;DHT22;68700;48.534;9.196;2023-07-13T01:50:35;19.00;1.00
12845;DHT22;68700;48.534;9.196;2023-07-13T01:53:57;19.00;1.00
12845;DHT22;68700;48.534;9.196;2023-07-13T01:57:20;18.90;1.00
12845;DHT22;68700;48.534;9.196;2023-07-13T02:00:42;18.90;1.00
12845;DHT22;68700;48.534;9.196;2023-07-13T02:04:04;18.90;1.00
12845;DHT22;68700;48.534;9.196;2023-07-13T02:07:26;18.70;1.00
12845;DHT22;68700;48.534;9.196;2023-07-13T02:10:48;18.70;1.00
12845;DHT22;68700;48.534;9.196;2023-07-13T02:14:11;18.50;1.00
12845;DHT22;68700;48.534;9.196;2023-07-13T02:17:34;18.50;1.00
12845;DHT22;68700;48.534;9.196;2023-07-13T02:20:56;18.50;1.00
12845;DHT22;68700;48.534;9.196;2023-07-13T02:24:17;18.50;1.00
12845;DHT22;68700;48.534;9.196;2023-07-13T02:27:41;18.40;1.00
12845;DHT22;68700;48.534;9.196;2023-07-13T02:31:09;18.40;1.00
12845;DHT22;68700;48.534;9.196;2023-07-13T02:34:33;18.40;1.00
12845;DHT22;68700;48.534;9.196;2023-07-13T02:37:55;18.20;1.00
12845;DHT22;68700;48.534;9.196;2023-07-13T02:41:17;18.20;1.00
12845;DHT22;68700;48.534;9.196;2023-07-13T02:44:39;18.10;1.00
12845;DHT22;68700;48.534;9.196;2023-07-13T02:48:02;17.90;1.00
12845;DHT22;68700;48.534;9.196;2023-07-13T02:51:24;17.80;1.00
12845;DHT22;68700;48.534;9.196;2023-07-13T02:54:46;17.70;1.00
12845;DHT22;68700;48.534;9.196;2023-07-13T02:58:08;17.70;1.00
12845;DHT22;68700;48.534;9.196;2023-07-13T03:01:29;17.60;1.00
12845;DHT22;68700;48.534;9.196;2023-07-13T03:04:57;17.40;1.00
12845;DHT22;68700;48.534;9.196;2023-07-13T03:08:18;17.30;1.00
12845;DHT22;68700;48.534;9.196;2023-07-13T03:11:40;17.30;1.00
12845;DHT22;68700;48.534;9.196;2023-07-13T03:15:02;17.30;1.00
12845;DHT22;68700;48.534;9.196;2023-07-13T03:18:26;17.10;1.00
12845;DHT22;68700;48.534;9.196;2023-07-13T03:21:49;17.10;1.00
12845;DHT22;68700;48.534;9.196;2023-07-13T03:25:11;17.10;1.00
12845;DHT22;68700;48.534;9.196;2023-07-13T03:28:33;17.00;1.00
12845;DHT22;68700;48.534;9.196;2023-07-13T03:31:55;17.00;1.00
12845;DHT22;68700;48.534;9.196;2023-07-13T03:35:17;17.00;1.00
12845;DHT22;68700;48.534;9.196;2023-07-13T03:38:40;16.90;1.00
12845;DHT22;68700;48.534;9.196;2023-07-13T03:42:02;17.00;1.00
12845;DHT22;68700;48.534;9.196;2023-07-13T03:45:24;17.00;1.00
12845;DHT22;68700;48.534;9.196;2023-07-13T03:48:47;17.10;1.00
12845;DHT22;68700;48.534;9.196;2023-07-13T03:52:09;17.10;1.00
12845;DHT22;68700;48.534;9.196;2023-07-13T03:55:32;17.10;1.00
12845;DHT22;68700;48.534;9.196;2023-07-13T03:58:53;17.20;1.00
12845;DHT22;68700;48.534;9.196;2023-07-13T04:02:15;17.10;1.00
12845;DHT22;68700;48.534;9.196;2023-07-13T04:05:38;17.20;1.00
12845;DHT22;68700;48.534;9.196;2023-07-13T04:09:02;17.20;1.00
12845;DHT22;68700;48.534;9.196;2023-07-13T04:12:27;17.10;1.00
12845;DHT22;68700;48.534;9.196;2023-07-13T04:15:49;17.20;1.00
12845;DHT22;68700;48.534;9.196;2023-07-13T04:19:13;17.00;1.00
12845;DHT22;68700;48.534;9.196;2023-07-13T04:22:35;16.80;1.00
12845;DHT22;68700;48.534;9.196;2023-07-13T04:25:56;16.90;1.00
12845;DHT22;68700;48.534;9.196;2023-07-13T04:29:19;17.00;1.00
12845;DHT22;68700;48.534;9.196;2023-07-13T04:32:41;16.90;1.00
12845;DHT22;68700;48.534;9.196;2023-07-13T04:36:04;17.00;1.00
12845;DHT22;68700;48.534;9.196;2023-07-13T04:39:26;17.00;1.00
12845;DHT22;68700;48.534;9.196;2023-07-13T04:42:48;17.10;1.00
12845;DHT22;68700;48.534;9.196;2023-07-13T04:46:13;17.10;1.00
12845;DHT22;68700;48.534;9.196;2023-07-13T04:49:35;17.20;1.00
12845;DHT22;68700;48.534;9.196;2023-07-13T04:52:57;17.30;1.00
12845;DHT22;68700;48.534;9.196;2023-07-13T04:56:19;17.40;1.00
12845;DHT22;68700;48.534;9.196;2023-07-13T04:59:41;17.50;1.00
12845;DHT22;68700;48.534;9.196;2023-07-13T05:03:04;17.50;1.00
12845;DHT22;68700;48.534;9.196;2023-07-13T05:06:26;17.60;1.00
12845;DHT22;68700;48.534;9.196;2023-07-13T05:09:49;17.60;1.00
12845;DHT22;68700;48.534;9.196;2023-07-13T05:13:10;17.70;1.00
12845;DHT22;68700;48.534;9.196;2023-07-13T05:16:32;17.80;1.00
12845;DHT22;68700;48.534;9.196;2023-07-13T05:19:55;17.90;1.00
12845;DHT22;68700;48.534;9.196;2023-07-13T05:23:17;17.90;1.00
12845;DHT22;68700;48.534;9.196;2023-07-13T05:26:39;17.80;1.00
12845;DHT22;68700;48.534;9.196;2023-07-13T05:30:01;18.00;1.00
12845;DHT22;68700;48.534;9.196;2023-07-13T05:33:24;18.20;1.00
12845;DHT22;68700;48.534;9.196;2023-07-13T05:36:47;18.30;1.00
12845;DHT22;68700;48.534;9.196;2023-07-13T05:40:10;18.40;1.00
12845;DHT22;68700;48.534;9.196;2023-07-13T05:43:32;18.20;1.00
12845;DHT22;68700;48.534;9.196;2023-07-13T05:46:53;18.20;1.00
12845;DHT22;68700;48.534;9.196;2023-07-13T05:50:17;18.20;1.00
12845;DHT22;68700;48.534;9.196;2023-07-13T05:53:40;18.10;1.00
12845;DHT22;68700;48.534;9.196;2023-07-13T05:57:02;18.20;1.00
12845;DHT22;68700;48.534;9.196;2023-07-13T06:00:24;18.30;1.00
12845;DHT22;68700;48.534;9.196;2023-07-13T06:03:46;18.60;1.00
12845;DHT22;68700;48.534;9.196;2023-07-13T06:07:08;19.00;1.00
12845;DHT22;68700;48.534;9.196;2023-07-13T06:10:32;19.20;1.00
12845;DHT22;68700;48.534;9.196;2023-07-13T06:13:54;19.30;1.00
12845;DHT22;68700;48.534;9.196;2023-07-13T06:17:15;19.60;1.00
12845;DHT22;68700;48.534;9.196;2023-07-13T06:20:37;19.90;1.00
12845;DHT22;68700;48.534;9.196;2023-07-13T06:23:59;20.30;1.00
12845;DHT22;68700;48.534;9.196;2023-07-13T06:27:22;20.40;1.00
12845;DHT22;68700;48.534;9.196;2023-07-13T06:30:44;20.40;1.00
12845;DHT22;68700;48.534;9.196;2023-07-13T06:34:06;20.60;1.00
12845;DHT22;68700;48.534;9.196;2023-07-13T06:37:28;20.90;1.00
12845;DHT22;68700;48.534;9.196;2023-07-13T06:40:49;21.10;1.00
12845;DHT22;68700;48.534;9.196;2023-07-13T06:44:12;21.80;1.00
12845;DHT22;68700;48.534;9.196;2023-07-13T06:47:34;22.40;1.00
12845;DHT22;68700;48.534;9.196;2023-07-13T06:50:56;22.80;1.00
12845;DHT22;68700;48.534;9.196;2023-07-13T06:54:18;23.30;99.90
12845;DHT22;68700;48.534;9.196;2023-07-13T06:57:40;23.50;99.90
12845;DHT22;68700;48.534;9.196;2023-07-13T07:01:03;23.50;99.90
12845;DHT22;68700;48.534;9.196;2023-07-13T07:04:25;24.00;99.90
12845;DHT22;68700;48.534;9.196;2023-07-13T07:07:47;24.90;99.90
12845;DHT22;68700;48.534;9.196;2023-07-13T07:11:12;24.90;99.90
12845;DHT22;68700;48.534;9.196;2023-07-13T07:14:34;24.80;99.90
12845;DHT22;68700;48.534;9.196;2023-07-13T07:17:58;24.50;99.90
12845;DHT22;68700;48.534;9.196;2023-07-13T07:21:19;24.00;99.90
12845;DHT22;68700;48.534;9.196;2023-07-13T07:24:43;24.90;99.90
12845;DHT22;68700;48.534;9.196;2023-07-13T07:28:05;25.90;99.90
12845;DHT22;68700;48.534;9.196;2023-07-13T07:31:26;26.30;99.90
12845;DHT22;68700;48.534;9.196;2023-07-13T07:34:49;26.90;99.90
12845;DHT22;68700;48.534;9.196;2023-07-13T07:38:11;27.10;99.90
12845;DHT22;68700;48.534;9.196;2023-07-13T07:41:33;27.50;99.90
12845;DHT22;68700;48.534;9.196;2023-07-13T07:44:55;26.50;99.90
12845;DHT22;68700;48.534;9.196;2023-07-13T07:48:17;27.80;99.90
12845;DHT22;68700;48.534;9.196;2023-07-13T07:51:40;28.20;99.90
12845;DHT22;68700;48.534;9.196;2023-07-13T07:55:03;26.20;99.90
12845;DHT22;68700;48.534;9.196;2023-07-13T07:58:24;27.80;99.90
12845;DHT22;68700;48.534;9.196;2023-07-13T08:01:46;28.40;99.90
12845;DHT22;68700;48.534;9.196;2023-07-13T08:05:11;28.50;99.90
12845;DHT22;68700;48.534;9.196;2023-07-13T08:08:34;29.10;99.90
12845;DHT22;68700;48.534;9.196;2023-07-13T08:11:56;30.20;99.90
12845;DHT22;68700;48.534;9.196;2023-07-13T08:15:18;30.00;99.90
12845;DHT22;68700;48.534;9.196;2023-07-13T08:18:41;30.90;99.90
12845;DHT22;68700;48.534;9.196;2023-07-13T08:22:03;30.70;99.90
12845;DHT22;68700;48.534;9.196;2023-07-13T08:25:26;30.70;99.90
12845;DHT22;68700;48.534;9.196;2023-07-13T08:28:48;29.60;99.90
12845;DHT22;68700;48.534;9.196;2023-07-13T08:32:10;29.20;99.90
12845;DHT22;68700;48.534;9.196;2023-07-13T08:35:31;28.10;99.90
12845;DHT22;68700;48.534;9.196;2023-07-13T08:38:53;28.50;99.90
12845;DHT22;68700;48.534;9.196;2023-07-13T08:42:26;30.00;99.90
12845;DHT22;68700;48.534;9.196;2023-07-13T08:45:54;30.00;99.90
12845;DHT22;68700;48.534;9.196;2023-07-13T08:49:19;28.30;99.90
12845;DHT22;68700;48.534;9.196;2023-07-13T08:52:44;29.10;99.90
12845;DHT22;68700;48.534;9.196;2023-07-13T08:56:11;28.30;99.90
12845;DHT22;68700;48.534;9.196;2023-07-13T08:59:36;28.70;99.90
12845;DHT22;68700;48.534;9.196;2023-07-13T09:02:59;28.10;99.90
12845;DHT22;68700;48.534;9.196;2023-07-13T09:06:27;29.30;99.90
12845;DHT22;68700;48.534;9.196;2023-07-13T09:09:58;29.50;99.90
12845;DHT22;68700;48.534;9.196;2023-07-13T09:13:28;28.70;99.90
12845;DHT22;68700;48.534;9.196;2023-07-13T09:16:55;29.60;99.90
12845;DHT22;68700;48.534;9.196;2023-07-13T09:20:21;29.70;99.90
12845;DHT22;68700;48.534;9.196;2023-07-13T09:23:44;31.00;99.90
12845;DHT22;68700;48.534;9.196;2023-07-13T09:27:14;31.10;99.90
12845;DHT22;68700;48.534;9.196;2023-07-13T09:30:53;29.90;99.90
12845;DHT22;68700;48.534;9.196;2023-07-13T09:34:18;32.00;99.90
12845;DHT22;68700;48.534;9.196;2023-07-13T09:37:40;31.60;99.90
12845;DHT22;68700;48.534;9.196;2023-07-13T09:41:19;30.70;99.90
12845;DHT22;68700;48.534;9.196;2023-07-13T09:44:52;30.70;99.90
12845;DHT22;68700;48.534;9.196;2023-07-13T09:48:17;29.40;99.90
12845;DHT22;68700;48.534;9.196;2023-07-13T09:51:42;28.30;99.90
12845;DHT22;68700;48.534;9.196;2023-07-13T09:55:23;28.60;99.90
12845;DHT22;68700;48.534;9.196;2023-07-13T09:58:46;30.50;99.90
12845;DHT22;68700;48.534;9.196;2023-07-13T10:02:23;29.10;99.90
12845;DHT22;68700;48.534;9.196;2023-07-13T10:05:46;28.10;99.90
12845;DHT22;68700;48.534;9.196;2023-07-13T10:09:15;29.80;99.90
12845;DHT22;68700;48.534;9.196;2023-07-13T10:12:38;30.20;99.90
12845;DHT22;68700;48.534;9.196;2023-07-13T10:16:00;27.90;99.90
12845;DHT22;68700;48.534;9.196;2023-07-13T10:19:25;27.20;99.90
12845;DHT22;68700;48.534;9.196;2023-07-13T10:22:52;29.70;99.90
12845;DHT22;68700;48.534;9.196;2023-07-13T10:26:21;28.40;99.90
12845;DHT22;68700;48.534;9.196;2023-07-13T10:29:46;30.60;99.90
12845;DHT22;68700;48.534;9.196;2023-07-13T10:33:12;32.80;99.90
12845;DHT22;68700;48.534;9.196;2023-07-13T10:36:40;32.90;99.90
12845;DHT22;68700;48.534;9.196;2023-07-13T10:40:04;32.80;99.90
12845;DHT22;68700;48.534;9.196;2023-07-13T10:43:32;32.00;99.90
12845;DHT22;68700;48.534;9.196;2023-07-13T10:46:59;31.20;99.90
12845;DHT22;68700;48.534;9.196;2023-07-13T10:50:31;32.80;99.90
12845;DHT22;68700;48.534;9.196;2023-07-13T10:54:19;31.90;99.90
12845;DHT22;68700;48.534;9.196;2023-07-13T10:57:43;30.70;99.90
12845;DHT22;68700;48.534;9.196;2023-07-13T11:01:11;31.10;99.90
12845;DHT22;68700;48.534;9.196;2023-07-13T11:04:40;31.40;99.90
12845;DHT22;68700;48.534;9.196;2023-07-13T11:08:13;30.70;99.90
12845;DHT22;68700;48.534;9.196;2023-07-13T11:11:38;31.20;99.90
12845;DHT22;68700;48.534;9.196;2023-07-13T11:15:07;30.50;99.90
12845;DHT22;68700;48.534;9.196;2023-07-13T11:18:32;30.10;99.90
12845;DHT22;68700;48.534;9.196;2023-07-13T11:25:48;29.80;99.90
12845;DHT22;68700;48.534;9.196;2023-07-13T11:29:25;29.90;99.90
12845;DHT22;68700;48.534;9.196;2023-07-13T11:32:51;28.90;99.90
12845;DHT22;68700;48.534;9.196;2023-07-13T11:36:16;28.80;99.90
12845;DHT22;68700;48.534;9.196;2023-07-13T11:39:42;29.80;99.90
12845;DHT22;68700;48.534;9.196;2023-07-13T11:43:06;30.90;99.90
12845;DHT22;68700;48.534;9.196;2023-07-13T11:46:28;31.60;99.90
12845;DHT22;68700;48.534;9.196;2023-07-13T11:49:52;31.70;99.90
12845;DHT22;68700;48.534;9.196;2023-07-13T11:53:18;32.10;99.90
12845;DHT22;68700;48.534;9.196;2023-07-13T11:56:40;31.30;99.90
12845;DHT22;68700;48.534;9.196;2023-07-13T12:00:05;30.40;99.90
12845;DHT22;68700;48.534;9.196;2023-07-13T12:03:33;30.10;99.90
12845;DHT22;68700;48.534;9.196;2023-07-13T12:06:57;30.40;99.90
12845;DHT22;68700;48.534;9.196;2023-07-13T12:10:23;31.20;99.90
12845;DHT22;68700;48.534;9.196;2023-07-13T12:13:46;31.40;99.90
12845;DHT22;68700;48.534;9.196;2023-07-13T12:17:15;31.30;99.90
12845;DHT22;68700;48.534;9.196;2023-07-13T12:20:39;31.90;99.90
12845;DHT22;68700;48.534;9.196;2023-07-13T12:24:01;31.90;99.90
12845;DHT22;68700;48.534;9.196;2023-07-13T12:27:27;32.20;99.90
12845;DHT22;68700;48.534;9.196;2023-07-13T12:30:49;32.70;99.90
12845;DHT22;68700;48.534;9.196;2023-07-13T12:34:14;31.80;99.90
12845;DHT22;68700;48.534;9.196;2023-07-13T12:37:36;30.60;99.90
12845;DHT22;68700;48.534;9.196;2023-07-13T12:40:58;29.10;99.90
12845;DHT22;68700;48.534;9.196;2023-07-13T12:44:27;30.20;99.90
12845;DHT22;68700;48.534;9.196;2023-07-13T12:47:52;30.90;99.90
12845;DHT22;68700;48.534;9.196;2023-07-13T12:51:15;30.40;99.90
12845;DHT22;68700;48.534;9.196;2023-07-13T12:54:39;29.40;99.90
12845;DHT22;68700;48.534;9.196;2023-07-13T12:58:03;30.30;99.90
12845;DHT22;68700;48.534;9.196;2023-07-13T13:01:31;31.80;99.90
12845;DHT22;68700;48.534;9.196;2023-07-13T13:04:55;32.80;99.90
12845;DHT22;68700;48.534;9.196;2023-07-13T13:08:17;32.70;99.90
12845;DHT22;68700;48.534;9.196;2023-07-13T13:11:45;30.80;99.90
12845;DHT22;68700;48.534;9.196;2023-07-13T13:15:07;32.50;99.90
12845;DHT22;68700;48.534;9.196;2023-07-13T13:18:31;33.00;99.90
12845;DHT22;68700;48.534;9.196;2023-07-13T13:21:54;33.00;99.90
12845;DHT22;68700;48.534;9.196;2023-07-13T13:25:17;34.00;99.90
12845;DHT22;68700;48.534;9.196;2023-07-13T13:28:40;35.10;99.90
12845;DHT22;68700;48.534;9.196;2023-07-13T13:32:02;34.90;99.90
12845;DHT22;68700;48.534;9.196;2023-07-13T13:35:27;34.30;99.90
12845;DHT22;68700;48.534;9.196;2023-07-13T13:38:50;32.60;99.90
12845;DHT22;68700;48.534;9.196;2023-07-13T13:42:12;33.30;99.90
12845;DHT22;68700;48.534;9.196;2023-07-13T13:45:34;34.40;99.90
12845;DHT22;68700;48.534;9.196;2023-07-13T13:48:56;34.30;99.90
12845;DHT22;68700;48.534;9.196;2023-07-13T13:52:20;33.70;99.90
12845;DHT22;68700;48.534;9.196;2023-07-13T13:55:41;33.30;99.90
12845;DHT22;68700;48.534;9.196;2023-07-13T13:59:07;31.40;99.90
12845;DHT22;68700;48.534;9.196;2023-07-13T14:02:32;29.20;99.90
12845;DHT22;68700;48.534;9.196;2023-07-13T14:05:54;29.90;99.90
12845;DHT22;68700;48.534;9.196;2023-07-13T14:09:19;30.50;99.90
12845;DHT22;68700;48.534;9.196;2023-07-13T14:12:44;30.90;99.90
12845;DHT22;68700;48.534;9.196;2023-07-13T14:16:10;31.50;99.90
12845;DHT22;68700;48.534;9.196;2023-07-13T14:19:33;33.60;99.90
12845;DHT22;68700;48.534;9.196;2023-07-13T14:22:55;34.50;99.90
12845;DHT22;68700;48.534;9.196;2023-07-13T14:26:19;34.20;99.90
12845;DHT22;68700;48.534;9.196;2023-07-13T14:29:41;34.40;99.90
12845;DHT22;68700;48.534;9.196;2023-07-13T14:33:08;34.70;99.90
12845;DHT22;68700;48.534;9.196;2023-07-13T14:36:32;32.60;99.90
12845;DHT22;68700;48.534;9.196;2023-07-13T14:39:54;31.40;99.90
12845;DHT22;68700;48.534;9.196;2023-07-13T14:43:18;32.20;99.90
12845;DHT22;68700;48.534;9.196;2023-07-13T14:46:40;32.70;99.90
12845;DHT22;68700;48.534;9.196;2023-07-13T14:50:02;32.90;99.90
12845;DHT22;68700;48.534;9.196;2023-07-13T14:53:26;31.80;99.90
12845;DHT22;68700;48.534;9.196;2023-07-13T14:56:49;32.50;99.90
12845;DHT22;68700;48.534;9.196;2023-07-13T15:00:17;33.60;99.90
12845;DHT22;68700;48.534;9.196;2023-07-13T15:03:42;33.40;99.90
12845;DHT22;68700;48.534;9.196;2023-07-13T15:07:05;32.50;99.90
12845;DHT22;68700;48.534;9.196;2023-07-13T15:10:29;31.50;99.90
12845;DHT22;68700;48.534;9.196;2023-07-13T15:13:51;32.30;99.90
12845;DHT22;68700;48.534;9.196;2023-07-13T15:17:23;32.30;99.90
12845;DHT22;68700;48.534;9.196;2023-07-13T15:20:47;31.90;99.90
12845;DHT22;68700;48.534;9.196;2023-07-13T15:24:10;30.80;99.90
12845;DHT22;68700;48.534;9.196;2023-07-13T15:27:32;30.90;99.90
12845;DHT22;68700;48.534;9.196;2023-07-13T15:30:53;30.60;99.90
12845;DHT22;68700;48.534;9.196;2023-07-13T15:34:20;30.70;99.90
12845;DHT22;68700;48.534;9.196;2023-07-13T15:37:46;31.10;99.90
12845;DHT22;68700;48.534;9.196;2023-07-13T15:41:14;30.80;99.90
12845;DHT22;68700;48.534;9.196;2023-07-13T15:44:37;30.70;99.90
12845;DHT22;68700;48.534;9.196;2023-07-13T15:47:59;29.50;99.90
12845;DHT22;68700;48.534;9.196;2023-07-13T15:51:25;29.00;99.90
12845;DHT22;68700;48.534;9.196;2023-07-13T15:54:48;28.60;99.90
12845;DHT22;68700;48.534;9.196;2023-07-13T15:58:12;28.40;99.90
12845;DHT22;68700;48.534;9.196;2023-07-13T16:01:35;28.10;99.90
12845;DHT22;68700;48.534;9.196;2023-07-13T16:04:57;28.10;99.90
12845;DHT22;68700;48.534;9.196;2023-07-13T16:08:24;28.00;99.90
12845;DHT22;68700;48.534;9.196;2023-07-13T16:11:47;28.00;99.90
12845;DHT22;68700;48.534;9.196;2023-07-13T16:15:18;28.00;99.90
12845;DHT22;68700;48.534;9.196;2023-07-13T16:18:40;27.90;99.90
12845;DHT22;68700;48.534;9.196;2023-07-13T16:22:03;27.60;99.90
12845;DHT22;68700;48.534;9.196;2023-07-13T16:25:28;28.00;99.90
12845;DHT22;68700;48.534;9.196;2023-07-13T16:28:50;28.10;99.90
12845;DHT22;68700;48.534;9.196;2023-07-13T16:32:20;28.50;99.90
12845;DHT22;68700;48.534;9.196;2023-07-13T16:35:42;27.90;99.90
12845;DHT22;68700;48.534;9.196;2023-07-13T16:39:11;27.90;99.90
12845;DHT22;68700;48.534;9.196;2023-07-13T16:42:35;27.90;99.90
12845;DHT22;68700;48.534;9.196;2023-07-13T16:45:57;27.60;99.90
12845;DHT22;68700;48.534;9.196;2023-07-13T16:49:22;27.60;99.90
12845;DHT22;68700;48.534;9.196;2023-07-13T16:52:45;27.50;99.90
12845;DHT22;68700;48.534;9.196;2023-07-13T16:56:15;27.40;99.90
12845;DHT22;68700;48.534;9.196;2023-07-13T16:59:39;27.10;99.90
12845;DHT22;68700;48.534;9.196;2023-07-13T17:03:04;27.30;99.90
12845;DHT22;68700;48.534;9.196;2023-07-13T17:06:28;27.00;99.90
12845;DHT22;68700;48.534;9.196;2023-07-13T17:09:50;27.20;99.90
12845;DHT22;68700;48.534;9.196;2023-07-13T17:13:15;27.00;99.90
12845;DHT22;68700;48.534;9.196;2023-07-13T17:16:39;26.50;99.90
12845;DHT22;68700;48.534;9.196;2023-07-13T17:20:01;26.30;99.90
12845;DHT22;68700;48.534;9.196;2023-07-13T17:23:24;26.20;99.90
12845;DHT22;68700;48.534;9.196;2023-07-13T17:26:47;26.20;99.90
12845;DHT22;68700;48.534;9.196;2023-07-13T17:30:15;26.00;99.90
12845;DHT22;68700;48.534;9.196;2023-07-13T17:33:39;25.90;99.90
12845;DHT22;68700;48.534;9.196;2023-07-13T17:37:04;25.80;99.90
12845;DHT22;68700;48.534;9.196;2023-07-13T17:40:27;25.80;99.90
12845;DHT22;68700;48.534;9.196;2023-07-13T17:43:50;25.60;99.90
12845;DHT22;68700;48.534;9.196;2023-07-13T17:47:22;25.50;99.90
12845;DHT22;68700;48.534;9.196;2023-07-13T17:50:46;25.40;99.90
12845;DHT22;68700;48.534;9.196;2023-07-13T17:54:12;25.30;99.90
12845;DHT22;68700;48.534;9.196;2023-07-13T17:57:34;25.20;99.90
12845;DHT22;68700;48.534;9.196;2023-07-13T18:00:56;25.20;99.90
12845;DHT22;68700;48.534;9.196;2023-07-13T18:04:18;25.20;99.90
12845;DHT22;68700;48.534;9.196;2023-07-13T18:07:44;25.00;99.90
12845;DHT22;68700;48.534;9.196;2023-07-13T18:11:08;24.90;99.90
12845;DHT22;68700;48.534;9.196;2023-07-13T18:14:32;24.80;99.90
12845;DHT22;68700;48.534;9.196;2023-07-13T18:17:58;24.80;99.90
12845;DHT22;68700;48.534;9.196;2023-07-13T18:21:21;24.60;99.90
12845;DHT22;68700;48.534;9.196;2023-07-13T18:24:44;24.50;99.90
12845;DHT22;68700;48.534;9.196;2023-07-13T18:28:07;24.40;99.90
12845;DHT22;68700;48.534;9.196;2023-07-13T18:31:33;24.20;99.90
12845;DHT22;68700;48.534;9.196;2023-07-13T18:34:55;24.20;99.90
12845;DHT22;68700;48.534;9.196;2023-07-13T18:38:20;24.00;99.90
12845;DHT22;68700;48.534;9.196;2023-07-13T18:41:43;23.80;99.90
12845;DHT22;68700;48.534;9.196;2023-07-13T18:45:08;23.60;99.90
12845;DHT22;68700;48.534;9.196;2023-07-13T18:48:32;23.50;99.90
12845;DHT22;68700;48.534;9.196;2023-07-13T18:51:54;23.40;99.90
12845;DHT22;68700;48.534;9.196;2023-07-13T18:55:17;23.30;99.90
12845;DHT22;68700;48.534;9.196;2023-07-13T18:58:41;23.10;99.90
12845;DHT22;68700;48.534;9.196;2023-07-13T19:02:08;22.90;99.90
12845;DHT22;68700;48.534;9.196;2023-07-13T19:05:33;22.70;99.90
12845;DHT22;68700;48.534;9.196;2023-07-13T19:08:55;22.40;99.90
12845;DHT22;68700;48.534;9.196;2023-07-13T19:12:18;22.20;99.90
12845;DHT22;68700;48.534;9.196;2023-07-13T19:15:42;22.00;99.90
12845;DHT22;68700;48.534;9.196;2023-07-13T19:19:10;21.90;99.90
12845;DHT22;68700;48.534;9.196;2023-07-13T19:22:33;21.70;99.90
12845;DHT22;68700;48.534;9.196;2023-07-13T19:26:01;21.50;99.90
12845;DHT22;68700;48.534;9.196;2023-07-13T19:29:25;21.50;99.90
12845;DHT22;68700;48.534;9.196;2023-07-13T19:32:48;21.40;99.90
12845;DHT22;68700;48.534;9.196;2023-07-13T19:36:13;21.30;99.90
12845;DHT22;68700;48.534;9.196;2023-07-13T19:39:37;21.20;99.90
12845;DHT22;68700;48.534;9.196;2023-07-13T19:43:00;21.00;99.90
12845;DHT22;68700;48.534;9.196;2023-07-13T19:46:26;20.90;99.90
12845;DHT22;68700;48.534;9.196;2023-07-13T19:49:51;20.80;99.90
12845;DHT22;68700;48.534;9.196;2023-07-13T19:53:16;20.70;99.90
12845;DHT22;68700;48.534;9.196;2023-07-13T19:56:39;20.60;99.90
12845;DHT22;68700;48.534;9.196;2023-07-13T20:00:01;20.50;99.90
12845;DHT22;68700;48.534;9.196;2023-07-13T20:03:23;20.30;99.90
12845;DHT22;68700;48.534;9.196;2023-07-13T20:06:47;20.30;99.90
12845;DHT22;68700;48.534;9.196;2023-07-13T20:10:21;20.20;1.00
12845;DHT22;68700;48.534;9.196;2023-07-13T20:13:43;20.00;1.00
12845;DHT22;68700;48.534;9.196;2023-07-13T20:17:20;19.80;1.00
12845;DHT22;68700;48.534;9.196;2023-07-13T20:20:43;19.70;1.00
12845;DHT22;68700;48.534;9.196;2023-07-13T20:24:15;19.60;1.00
12845;DHT22;68700;48.534;9.196;2023-07-13T20:27:37;19.50;1.00
12845;DHT22;68700;48.534;9.196;2023-07-13T20:31:00;19.40;1.00
12845;DHT22;68700;48.534;9.196;2023-07-13T20:34:23;19.30;1.00
12845;DHT22;68700;48.534;9.196;2023-07-13T20:37:46;19.20;1.00
12845;DHT22;68700;48.534;9.196;2023-07-13T20:41:12;19.20;1.00
12845;DHT22;68700;48.534;9.196;2023-07-13T20:44:33;19.20;1.00
12845;DHT22;68700;48.534;9.196;2023-07-13T20:47:59;19.20;1.00
12845;DHT22;68700;48.534;9.196;2023-07-13T20:51:21;19.20;1.00
12845;DHT22;68700;48.534;9.196;2023-07-13T20:54:43;19.20;1.00
12845;DHT22;68700;48.534;9.196;2023-07-13T20:58:08;19.20;1.00
12845;DHT22;68700;48.534;9.196;2023-07-13T21:01:32;19.20;1.00
12845;DHT22;68700;48.534;9.196;2023-07-13T21:04:54;19.20;1.00
12845;DHT22;68700;48.534;9.196;2023-07-13T21:08:18;19.20;1.00
12845;DHT22;68700;48.534;9.196;2023-07-13T21:11:40;19.10;1.00
12845;DHT22;68700;48.534;9.196;2023-07-13T21:15:03;19.00;1.00
12845;DHT22;68700;48.534;9.196;2023-07-13T21:18:25;18.90;1.00
12845;DHT22;68700;48.534;9.196;2023-07-13T21:21:47;18.80;1.00
12845;DHT22;68700;48.534;9.196;2023-07-13T21:25:13;18.80;1.00
12845;DHT22;68700;48.534;9.196;2023-07-13T21:28:37;18.70;1.00
12845;DHT22;68700;48.534;9.196;2023-07-13T21:32:00;18.60;1.00
12845;DHT22;68700;48.534;9.196;2023-07-13T21:35:28;18.50;1.00
12845;DHT22;68700;48.534;9.196;2023-07-13T21:38:55;18.50;1.00
12845;DHT22;68700;48.534;9.196;2023-07-13T21:42:18;18.30;1.00